sensor_id;sensor_type;location;lat;lon;timestamp;P1;durP1;ratioP1;P2;durP2;ratioP2
22298;SDS011;11317;51.072;17.036;2023-12-20T00:01:36;9.77;;;4.90;;
22298;SDS011;11317;51.072;17.036;2023-12-20T00:04:02;7.55;;;4.28;;
22298;SDS011;11317;51.072;17.036;2023-12-20T00:06:28;8.00;;;4.45;;
22298;SDS011;11317;51.072;17.036;2023-12-20T00:08:55;9.27;;;4.88;;
22298;SDS011;11317;51.072;17.036;2023-12-20T00:11:22;8.15;;;4.38;;
22298;SDS011;11317;51.072;17.036;2023-12-20T00:13:49;10.55;;;5.13;;
22298;SDS011;11317;51.072;17.036;2023-12-20T00:16:15;10.27;;;5.60;;
22298;SDS011;11317;51.072;17.036;2023-12-20T00:18:41;8.93;;;4.97;;
22298;SDS011;11317;51.072;17.036;2023-12-20T00:21:07;9.40;;;5.10;;
22298;SDS011;11317;51.072;17.036;2023-12-20T00:23:33;10.63;;;5.25;;
22298;SDS011;11317;51.072;17.036;2023-12-20T00:25:59;13.18;;;5.72;;
22298;SDS011;11317;51.072;17.036;2023-12-20T00:28:25;9.40;;;5.30;;
22298;SDS011;11317;51.072;17.036;2023-12-20T00:30:51;12.48;;;5.57;;
22298;SDS011;11317;51.072;17.036;2023-12-20T00:33:17;6.57;;;4.28;;
22298;SDS011;11317;51.072;17.036;2023-12-20T00:35:44;7.15;;;4.40;;
22298;SDS011;11317;51.072;17.036;2023-12-20T00:38:09;7.75;;;4.72;;
22298;SDS011;11317;51.072;17.036;2023-12-20T00:40:36;13.05;;;6.80;;
22298;SDS011;11317;51.072;17.036;2023-12-20T00:43:03;11.50;;;5.85;;
22298;SDS011;11317;51.072;17.036;2023-12-20T00:45:29;10.75;;;5.55;;
22298;SDS011;11317;51.072;17.036;2023-12-20T00:47:55;9.00;;;5.47;;
22298;SDS011;11317;51.072;17.036;2023-12-20T00:50:21;9.80;;;6.07;;
22298;SDS011;11317;51.072;17.036;2023-12-20T00:52:47;7.70;;;5.43;;
22298;SDS011;11317;51.072;17.036;2023-12-20T00:55:14;7.18;;;5.28;;
22298;SDS011;11317;51.072;17.036;2023-12-20T00:57:40;8.43;;;5.03;;
22298;SDS011;11317;51.072;17.036;2023-12-20T01:00:06;9.98;;;5.70;;
22298;SDS011;11317;51.072;17.036;2023-12-20T01:02:34;8.75;;;5.07;;
22298;SDS011;11317;51.072;17.036;2023-12-20T01:05:00;9.50;;;5.10;;
22298;SDS011;11317;51.072;17.036;2023-12-20T01:07:26;6.28;;;4.63;;
22298;SDS011;11317;51.072;17.036;2023-12-20T01:09:52;10.77;;;4.90;;
22298;SDS011;11317;51.072;17.036;2023-12-20T01:12:18;9.77;;;5.15;;
22298;SDS011;11317;51.072;17.036;2023-12-20T01:14:45;9.63;;;4.90;;
22298;SDS011;11317;51.072;17.036;2023-12-20T01:17:12;7.75;;;4.80;;
22298;SDS011;11317;51.072;17.036;2023-12-20T01:19:38;9.43;;;4.88;;
22298;SDS011;11317;51.072;17.036;2023-12-20T01:22:04;7.28;;;4.32;;
22298;SDS011;11317;51.072;17.036;2023-12-20T01:24:30;9.85;;;4.50;;
22298;SDS011;11317;51.072;17.036;2023-12-20T01:26:56;6.50;;;4.00;;
22298;SDS011;11317;51.072;17.036;2023-12-20T01:29:22;8.93;;;4.88;;
22298;SDS011;11317;51.072;17.036;2023-12-20T01:31:48;10.23;;;4.18;;
22298;SDS011;11317;51.072;17.036;2023-12-20T01:34:15;7.15;;;4.32;;
22298;SDS011;11317;51.072;17.036;2023-12-20T01:36:41;7.20;;;4.45;;
22298;SDS011;11317;51.072;17.036;2023-12-20T01:39:07;8.50;;;3.78;;
22298;SDS011;11317;51.072;17.036;2023-12-20T01:41:33;8.23;;;4.57;;
22298;SDS011;11317;51.072;17.036;2023-12-20T01:43:59;9.77;;;4.40;;
22298;SDS011;11317;51.072;17.036;2023-12-20T01:46:25;6.68;;;4.03;;
22298;SDS011;11317;51.072;17.036;2023-12-20T01:48:51;8.27;;;4.43;;
22298;SDS011;11317;51.072;17.036;2023-12-20T01:51:18;6.85;;;3.80;;
22298;SDS011;11317;51.072;17.036;2023-12-20T01:53:44;7.70;;;3.85;;
22298;SDS011;11317;51.072;17.036;2023-12-20T01:56:10;7.32;;;4.00;;
22298;SDS011;11317;51.072;17.036;2023-12-20T01:58:38;11.10;;;4.10;;
22298;SDS011;11317;51.072;17.036;2023-12-20T02:01:11;6.05;;;4.45;;
22298;SDS011;11317;51.072;17.036;2023-12-20T02:03:39;7.75;;;4.45;;
22298;SDS011;11317;51.072;17.036;2023-12-20T02:06:08;5.72;;;4.03;;
22298;SDS011;11317;51.072;17.036;2023-12-20T02:08:35;9.60;;;4.10;;
22298;SDS011;11317;51.072;17.036;2023-12-20T02:11:01;5.63;;;3.92;;
22298;SDS011;11317;51.072;17.036;2023-12-20T02:13:27;6.25;;;3.80;;
22298;SDS011;11317;51.072;17.036;2023-12-20T02:15:54;6.85;;;4.50;;
22298;SDS011;11317;51.072;17.036;2023-12-20T02:18:20;7.03;;;4.45;;
22298;SDS011;11317;51.072;17.036;2023-12-20T02:20:46;6.25;;;4.05;;
22298;SDS011;11317;51.072;17.036;2023-12-20T02:23:12;6.97;;;3.80;;
22298;SDS011;11317;51.072;17.036;2023-12-20T02:25:38;7.35;;;4.22;;
22298;SDS011;11317;51.072;17.036;2023-12-20T02:28:05;8.68;;;4.40;;
22298;SDS011;11317;51.072;17.036;2023-12-20T02:30:31;5.63;;;4.32;;
22298;SDS011;11317;51.072;17.036;2023-12-20T02:32:58;6.47;;;3.53;;
22298;SDS011;11317;51.072;17.036;2023-12-20T02:35:26;9.38;;;4.57;;
22298;SDS011;11317;51.072;17.036;2023-12-20T02:37:52;8.90;;;3.83;;
22298;SDS011;11317;51.072;17.036;2023-12-20T02:40:18;6.90;;;4.03;;
22298;SDS011;11317;51.072;17.036;2023-12-20T02:42:44;6.38;;;3.83;;
22298;SDS011;11317;51.072;17.036;2023-12-20T02:45:10;8.55;;;3.88;;
22298;SDS011;11317;51.072;17.036;2023-12-20T02:47:37;5.07;;;3.60;;
22298;SDS011;11317;51.072;17.036;2023-12-20T02:50:03;5.60;;;3.17;;
22298;SDS011;11317;51.072;17.036;2023-12-20T02:52:29;8.88;;;3.85;;
22298;SDS011;11317;51.072;17.036;2023-12-20T02:54:55;5.30;;;3.25;;
22298;SDS011;11317;51.072;17.036;2023-12-20T02:57:21;5.00;;;3.13;;
22298;SDS011;11317;51.072;17.036;2023-12-20T02:59:47;4.32;;;2.92;;
22298;SDS011;11317;51.072;17.036;2023-12-20T03:02:13;5.13;;;2.80;;
22298;SDS011;11317;51.072;17.036;2023-12-20T03:04:39;5.32;;;3.03;;
22298;SDS011;11317;51.072;17.036;2023-12-20T03:07:05;3.63;;;2.45;;
22298;SDS011;11317;51.072;17.036;2023-12-20T03:09:31;4.60;;;2.45;;
22298;SDS011;11317;51.072;17.036;2023-12-20T03:11:57;4.38;;;2.65;;
22298;SDS011;11317;51.072;17.036;2023-12-20T03:14:23;2.40;;;1.90;;
22298;SDS011;11317;51.072;17.036;2023-12-20T03:16:49;4.20;;;2.45;;
22298;SDS011;11317;51.072;17.036;2023-12-20T03:19:16;4.82;;;2.60;;
22298;SDS011;11317;51.072;17.036;2023-12-20T03:21:43;4.78;;;1.98;;
22298;SDS011;11317;51.072;17.036;2023-12-20T03:24:09;3.17;;;2.20;;
22298;SDS011;11317;51.072;17.036;2023-12-20T03:26:35;6.22;;;2.55;;
22298;SDS011;11317;51.072;17.036;2023-12-20T03:29:00;3.17;;;1.80;;
22298;SDS011;11317;51.072;17.036;2023-12-20T03:31:26;3.00;;;2.08;;
22298;SDS011;11317;51.072;17.036;2023-12-20T03:33:53;3.35;;;2.10;;
22298;SDS011;11317;51.072;17.036;2023-12-20T03:36:19;3.10;;;1.70;;
22298;SDS011;11317;51.072;17.036;2023-12-20T03:38:45;2.42;;;1.80;;
22298;SDS011;11317;51.072;17.036;2023-12-20T03:41:11;4.50;;;2.00;;
22298;SDS011;11317;51.072;17.036;2023-12-20T03:43:37;2.95;;;1.80;;
22298;SDS011;11317;51.072;17.036;2023-12-20T03:46:03;2.67;;;1.98;;
22298;SDS011;11317;51.072;17.036;2023-12-20T03:48:32;3.42;;;1.52;;
22298;SDS011;11317;51.072;17.036;2023-12-20T03:50:58;4.90;;;1.95;;
22298;SDS011;11317;51.072;17.036;2023-12-20T03:53:24;2.13;;;1.55;;
22298;SDS011;11317;51.072;17.036;2023-12-20T03:55:50;2.22;;;1.67;;
22298;SDS011;11317;51.072;17.036;2023-12-20T03:58:16;1.52;;;1.00;;
22298;SDS011;11317;51.072;17.036;2023-12-20T04:00:43;1.70;;;1.35;;
22298;SDS011;11317;51.072;17.036;2023-12-20T04:03:08;1.88;;;1.33;;
22298;SDS011;11317;51.072;17.036;2023-12-20T04:05:37;1.58;;;1.08;;
22298;SDS011;11317;51.072;17.036;2023-12-20T04:08:03;1.25;;;0.80;;
22298;SDS011;11317;51.072;17.036;2023-12-20T04:10:30;1.15;;;0.90;;
22298;SDS011;11317;51.072;17.036;2023-12-20T04:12:55;1.48;;;1.38;;
22298;SDS011;11317;51.072;17.036;2023-12-20T04:15:22;1.40;;;1.27;;
22298;SDS011;11317;51.072;17.036;2023-12-20T04:17:48;1.98;;;1.00;;
22298;SDS011;11317;51.072;17.036;2023-12-20T04:20:13;1.90;;;1.15;;
22298;SDS011;11317;51.072;17.036;2023-12-20T04:22:40;1.50;;;1.40;;
22298;SDS011;11317;51.072;17.036;2023-12-20T04:25:05;1.88;;;1.20;;
22298;SDS011;11317;51.072;17.036;2023-12-20T04:27:32;1.17;;;0.88;;
22298;SDS011;11317;51.072;17.036;2023-12-20T04:29:58;1.45;;;1.17;;
22298;SDS011;11317;51.072;17.036;2023-12-20T04:32:24;1.70;;;1.10;;
22298;SDS011;11317;51.072;17.036;2023-12-20T04:34:50;0.65;;;0.65;;
22298;SDS011;11317;51.072;17.036;2023-12-20T04:37:15;1.98;;;0.88;;
22298;SDS011;11317;51.072;17.036;2023-12-20T04:39:42;1.00;;;0.65;;
22298;SDS011;11317;51.072;17.036;2023-12-20T04:42:08;2.28;;;0.80;;
22298;SDS011;11317;51.072;17.036;2023-12-20T04:44:34;0.70;;;0.70;;
22298;SDS011;11317;51.072;17.036;2023-12-20T04:47:00;0.73;;;0.70;;
22298;SDS011;11317;51.072;17.036;2023-12-20T04:49:26;0.68;;;0.50;;
22298;SDS011;11317;51.072;17.036;2023-12-20T04:51:52;0.75;;;0.52;;
22298;SDS011;11317;51.072;17.036;2023-12-20T04:54:18;0.50;;;0.50;;
22298;SDS011;11317;51.072;17.036;2023-12-20T04:56:44;0.47;;;0.47;;
22298;SDS011;11317;51.072;17.036;2023-12-20T04:59:10;1.27;;;0.70;;
22298;SDS011;11317;51.072;17.036;2023-12-20T05:01:36;0.60;;;0.60;;
22298;SDS011;11317;51.072;17.036;2023-12-20T05:04:02;1.88;;;0.88;;
22298;SDS011;11317;51.072;17.036;2023-12-20T05:06:29;0.60;;;0.60;;
22298;SDS011;11317;51.072;17.036;2023-12-20T05:08:54;0.43;;;0.43;;
22298;SDS011;11317;51.072;17.036;2023-12-20T05:11:21;0.82;;;0.50;;
22298;SDS011;11317;51.072;17.036;2023-12-20T05:13:47;0.40;;;0.40;;
22298;SDS011;11317;51.072;17.036;2023-12-20T05:16:13;1.10;;;0.60;;
22298;SDS011;11317;51.072;17.036;2023-12-20T05:18:40;0.55;;;0.55;;
22298;SDS011;11317;51.072;17.036;2023-12-20T05:21:06;1.13;;;0.70;;
22298;SDS011;11317;51.072;17.036;2023-12-20T05:23:32;0.40;;;0.40;;
22298;SDS011;11317;51.072;17.036;2023-12-20T05:25:58;0.50;;;0.50;;
22298;SDS011;11317;51.072;17.036;2023-12-20T05:28:24;0.63;;;0.60;;
22298;SDS011;11317;51.072;17.036;2023-12-20T05:30:50;0.52;;;0.52;;
22298;SDS011;11317;51.072;17.036;2023-12-20T05:33:17;1.50;;;0.82;;
22298;SDS011;11317;51.072;17.036;2023-12-20T05:35:43;0.57;;;0.57;;
22298;SDS011;11317;51.072;17.036;2023-12-20T05:38:09;0.70;;;0.55;;
22298;SDS011;11317;51.072;17.036;2023-12-20T05:40:35;0.90;;;0.85;;
22298;SDS011;11317;51.072;17.036;2023-12-20T05:43:01;1.60;;;1.15;;
22298;SDS011;11317;51.072;17.036;2023-12-20T05:45:27;0.50;;;0.50;;
22298;SDS011;11317;51.072;17.036;2023-12-20T05:47:54;1.38;;;0.90;;
22298;SDS011;11317;51.072;17.036;2023-12-20T05:50:20;0.63;;;0.60;;
22298;SDS011;11317;51.072;17.036;2023-12-20T05:52:46;3.33;;;1.00;;
22298;SDS011;11317;51.072;17.036;2023-12-20T05:55:12;1.88;;;1.05;;
22298;SDS011;11317;51.072;17.036;2023-12-20T05:57:38;1.38;;;1.23;;
22298;SDS011;11317;51.072;17.036;2023-12-20T06:00:04;1.90;;;1.35;;
22298;SDS011;11317;51.072;17.036;2023-12-20T06:02:31;1.73;;;1.17;;
22298;SDS011;11317;51.072;17.036;2023-12-20T06:04:57;1.10;;;0.88;;
22298;SDS011;11317;51.072;17.036;2023-12-20T06:07:23;1.80;;;1.17;;
22298;SDS011;11317;51.072;17.036;2023-12-20T06:09:49;1.10;;;1.00;;
22298;SDS011;11317;51.072;17.036;2023-12-20T06:12:16;4.15;;;1.45;;
22298;SDS011;11317;51.072;17.036;2023-12-20T06:14:42;1.60;;;1.45;;
22298;SDS011;11317;51.072;17.036;2023-12-20T06:17:08;1.38;;;0.98;;
22298;SDS011;11317;51.072;17.036;2023-12-20T06:19:33;3.42;;;1.48;;
22298;SDS011;11317;51.072;17.036;2023-12-20T06:21:59;0.80;;;0.80;;
22298;SDS011;11317;51.072;17.036;2023-12-20T06:24:25;1.08;;;0.98;;
22298;SDS011;11317;51.072;17.036;2023-12-20T06:26:53;1.38;;;1.20;;
22298;SDS011;11317;51.072;17.036;2023-12-20T06:29:20;1.48;;;1.33;;
22298;SDS011;11317;51.072;17.036;2023-12-20T06:31:46;1.27;;;1.17;;
22298;SDS011;11317;51.072;17.036;2023-12-20T06:34:12;1.42;;;1.00;;
22298;SDS011;11317;51.072;17.036;2023-12-20T06:36:38;1.63;;;1.02;;
22298;SDS011;11317;51.072;17.036;2023-12-20T06:39:04;3.28;;;1.30;;
22298;SDS011;11317;51.072;17.036;2023-12-20T06:41:30;2.10;;;1.15;;
22298;SDS011;11317;51.072;17.036;2023-12-20T06:43:56;8.05;;;1.33;;
22298;SDS011;11317;51.072;17.036;2023-12-20T06:46:23;1.77;;;0.88;;
22298;SDS011;11317;51.072;17.036;2023-12-20T06:48:49;2.50;;;1.30;;
22298;SDS011;11317;51.072;17.036;2023-12-20T06:51:15;2.28;;;1.40;;
22298;SDS011;11317;51.072;17.036;2023-12-20T06:53:42;1.63;;;1.27;;
22298;SDS011;11317;51.072;17.036;2023-12-20T06:56:09;1.98;;;1.08;;
22298;SDS011;11317;51.072;17.036;2023-12-20T06:58:40;0.90;;;0.90;;
22298;SDS011;11317;51.072;17.036;2023-12-20T07:01:10;1.98;;;1.33;;
22298;SDS011;11317;51.072;17.036;2023-12-20T07:03:36;1.65;;;1.20;;
22298;SDS011;11317;51.072;17.036;2023-12-20T07:06:02;2.92;;;1.20;;
22298;SDS011;11317;51.072;17.036;2023-12-20T07:08:29;2.55;;;1.30;;
22298;SDS011;11317;51.072;17.036;2023-12-20T07:10:54;0.95;;;0.95;;
22298;SDS011;11317;51.072;17.036;2023-12-20T07:13:20;1.42;;;1.00;;
22298;SDS011;11317;51.072;17.036;2023-12-20T07:15:47;1.20;;;1.10;;
22298;SDS011;11317;51.072;17.036;2023-12-20T07:18:15;1.17;;;0.70;;
22298;SDS011;11317;51.072;17.036;2023-12-20T07:20:40;1.02;;;0.85;;
22298;SDS011;11317;51.072;17.036;2023-12-20T07:23:06;1.17;;;0.80;;
22298;SDS011;11317;51.072;17.036;2023-12-20T07:25:32;1.75;;;1.10;;
22298;SDS011;11317;51.072;17.036;2023-12-20T07:27:59;1.98;;;1.02;;
22298;SDS011;11317;51.072;17.036;2023-12-20T07:30:24;0.65;;;0.65;;
22298;SDS011;11317;51.072;17.036;2023-12-20T07:32:51;1.60;;;1.15;;
22298;SDS011;11317;51.072;17.036;2023-12-20T07:35:18;1.40;;;1.15;;
22298;SDS011;11317;51.072;17.036;2023-12-20T07:37:44;2.28;;;1.30;;
22298;SDS011;11317;51.072;17.036;2023-12-20T07:40:10;2.65;;;1.20;;
22298;SDS011;11317;51.072;17.036;2023-12-20T07:42:36;2.30;;;1.38;;
22298;SDS011;11317;51.072;17.036;2023-12-20T07:45:03;1.77;;;1.13;;
22298;SDS011;11317;51.072;17.036;2023-12-20T07:47:29;2.22;;;1.25;;
22298;SDS011;11317;51.072;17.036;2023-12-20T07:49:55;1.60;;;1.25;;
22298;SDS011;11317;51.072;17.036;2023-12-20T07:52:21;3.22;;;1.17;;
22298;SDS011;11317;51.072;17.036;2023-12-20T07:54:47;2.78;;;1.20;;
22298;SDS011;11317;51.072;17.036;2023-12-20T07:57:14;1.23;;;0.95;;
22298;SDS011;11317;51.072;17.036;2023-12-20T07:59:39;2.47;;;0.82;;
22298;SDS011;11317;51.072;17.036;2023-12-20T08:02:05;2.38;;;0.70;;
22298;SDS011;11317;51.072;17.036;2023-12-20T08:04:32;0.77;;;0.77;;
22298;SDS011;11317;51.072;17.036;2023-12-20T08:06:58;1.23;;;0.80;;
22298;SDS011;11317;51.072;17.036;2023-12-20T08:09:25;1.13;;;0.75;;
22298;SDS011;11317;51.072;17.036;2023-12-20T08:11:51;0.88;;;0.80;;
22298;SDS011;11317;51.072;17.036;2023-12-20T08:14:17;1.63;;;1.25;;
22298;SDS011;11317;51.072;17.036;2023-12-20T08:16:43;1.13;;;0.65;;
22298;SDS011;11317;51.072;17.036;2023-12-20T08:19:09;1.15;;;0.80;;
22298;SDS011;11317;51.072;17.036;2023-12-20T08:21:35;1.20;;;0.70;;
22298;SDS011;11317;51.072;17.036;2023-12-20T08:24:01;3.53;;;0.80;;
22298;SDS011;11317;51.072;17.036;2023-12-20T08:26:28;1.80;;;0.65;;
22298;SDS011;11317;51.072;17.036;2023-12-20T08:28:54;2.22;;;0.90;;
22298;SDS011;11317;51.072;17.036;2023-12-20T08:31:20;2.10;;;0.70;;
22298;SDS011;11317;51.072;17.036;2023-12-20T08:33:46;1.90;;;0.90;;
22298;SDS011;11317;51.072;17.036;2023-12-20T08:36:13;2.40;;;0.68;;
22298;SDS011;11317;51.072;17.036;2023-12-20T08:38:39;1.08;;;0.82;;
22298;SDS011;11317;51.072;17.036;2023-12-20T08:41:06;0.52;;;0.52;;
22298;SDS011;11317;51.072;17.036;2023-12-20T08:43:32;1.00;;;0.70;;
22298;SDS011;11317;51.072;17.036;2023-12-20T08:46:00;0.60;;;0.47;;
22298;SDS011;11317;51.072;17.036;2023-12-20T08:48:26;2.08;;;0.80;;
22298;SDS011;11317;51.072;17.036;2023-12-20T08:50:52;0.52;;;0.52;;
22298;SDS011;11317;51.072;17.036;2023-12-20T08:53:19;0.43;;;0.43;;
22298;SDS011;11317;51.072;17.036;2023-12-20T08:55:45;0.47;;;0.47;;
22298;SDS011;11317;51.072;17.036;2023-12-20T08:58:11;0.50;;;0.50;;
22298;SDS011;11317;51.072;17.036;2023-12-20T09:00:37;0.55;;;0.47;;
22298;SDS011;11317;51.072;17.036;2023-12-20T09:03:04;0.82;;;0.75;;
22298;SDS011;11317;51.072;17.036;2023-12-20T09:05:30;0.50;;;0.50;;
22298;SDS011;11317;51.072;17.036;2023-12-20T09:07:56;0.82;;;0.65;;
22298;SDS011;11317;51.072;17.036;2023-12-20T09:10:22;1.75;;;0.90;;
22298;SDS011;11317;51.072;17.036;2023-12-20T09:12:52;0.70;;;0.70;;
22298;SDS011;11317;51.072;17.036;2023-12-20T09:15:25;1.10;;;0.70;;
22298;SDS011;11317;51.072;17.036;2023-12-20T09:17:52;1.48;;;0.80;;
22298;SDS011;11317;51.072;17.036;2023-12-20T09:20:18;1.40;;;0.45;;
22298;SDS011;11317;51.072;17.036;2023-12-20T09:22:44;1.23;;;0.75;;
22298;SDS011;11317;51.072;17.036;2023-12-20T09:25:10;0.55;;;0.55;;
22298;SDS011;11317;51.072;17.036;2023-12-20T09:27:37;1.85;;;0.88;;
22298;SDS011;11317;51.072;17.036;2023-12-20T09:30:04;1.05;;;0.60;;
22298;SDS011;11317;51.072;17.036;2023-12-20T09:32:30;0.88;;;0.50;;
22298;SDS011;11317;51.072;17.036;2023-12-20T09:34:57;1.25;;;0.90;;
22298;SDS011;11317;51.072;17.036;2023-12-20T09:37:25;1.17;;;0.75;;
22298;SDS011;11317;51.072;17.036;2023-12-20T09:39:52;1.17;;;0.60;;
22298;SDS011;11317;51.072;17.036;2023-12-20T09:42:20;1.20;;;0.73;;
22298;SDS011;11317;51.072;17.036;2023-12-20T09:44:53;1.13;;;0.68;;
22298;SDS011;11317;51.072;17.036;2023-12-20T09:47:20;1.00;;;0.90;;
22298;SDS011;11317;51.072;17.036;2023-12-20T09:49:49;1.13;;;0.60;;
22298;SDS011;11317;51.072;17.036;2023-12-20T09:52:16;0.68;;;0.63;;
22298;SDS011;11317;51.072;17.036;2023-12-20T09:54:44;0.70;;;0.70;;
22298;SDS011;11317;51.072;17.036;2023-12-20T09:57:10;0.60;;;0.60;;
22298;SDS011;11317;51.072;17.036;2023-12-20T09:59:37;1.08;;;0.75;;
22298;SDS011;11317;51.072;17.036;2023-12-20T10:02:03;0.60;;;0.60;;
22298;SDS011;11317;51.072;17.036;2023-12-20T10:04:33;1.75;;;1.00;;
22298;SDS011;11317;51.072;17.036;2023-12-20T10:07:01;1.20;;;0.95;;
22298;SDS011;11317;51.072;17.036;2023-12-20T10:09:31;1.02;;;0.90;;
22298;SDS011;11317;51.072;17.036;2023-12-20T10:11:57;3.42;;;0.90;;
22298;SDS011;11317;51.072;17.036;2023-12-20T10:14:23;1.17;;;1.08;;
22298;SDS011;11317;51.072;17.036;2023-12-20T10:16:49;1.13;;;1.00;;
22298;SDS011;11317;51.072;17.036;2023-12-20T10:19:19;1.50;;;0.90;;
22298;SDS011;11317;51.072;17.036;2023-12-20T10:21:45;0.95;;;0.95;;
22298;SDS011;11317;51.072;17.036;2023-12-20T10:24:16;0.93;;;0.90;;
22298;SDS011;11317;51.072;17.036;2023-12-20T10:26:43;1.02;;;0.77;;
22298;SDS011;11317;51.072;17.036;2023-12-20T10:29:09;2.53;;;1.10;;
22298;SDS011;11317;51.072;17.036;2023-12-20T10:31:35;0.90;;;0.82;;
22298;SDS011;11317;51.072;17.036;2023-12-20T10:34:03;0.93;;;0.85;;
22298;SDS011;11317;51.072;17.036;2023-12-20T10:36:30;1.08;;;0.88;;
22298;SDS011;11317;51.072;17.036;2023-12-20T10:38:58;1.00;;;0.68;;
22298;SDS011;11317;51.072;17.036;2023-12-20T10:41:28;2.10;;;0.93;;
22298;SDS011;11317;51.072;17.036;2023-12-20T10:44:03;1.58;;;0.90;;
22298;SDS011;11317;51.072;17.036;2023-12-20T10:46:30;1.88;;;1.10;;
22298;SDS011;11317;51.072;17.036;2023-12-20T10:48:57;3.63;;;0.60;;
22298;SDS011;11317;51.072;17.036;2023-12-20T10:51:24;1.90;;;1.00;;
22298;SDS011;11317;51.072;17.036;2023-12-20T10:53:55;1.20;;;1.00;;
22298;SDS011;11317;51.072;17.036;2023-12-20T10:56:21;2.83;;;0.98;;
22298;SDS011;11317;51.072;17.036;2023-12-20T10:58:51;0.68;;;0.68;;
22298;SDS011;11317;51.072;17.036;2023-12-20T11:01:17;1.60;;;0.93;;
22298;SDS011;11317;51.072;17.036;2023-12-20T11:03:51;4.00;;;1.25;;
22298;SDS011;11317;51.072;17.036;2023-12-20T11:09:13;2.87;;;1.27;;
22298;SDS011;11317;51.072;17.036;2023-12-20T11:14:17;1.23;;;1.00;;
22298;SDS011;11317;51.072;17.036;2023-12-20T11:16:47;2.08;;;1.02;;
22298;SDS011;11317;51.072;17.036;2023-12-20T11:19:13;1.48;;;0.90;;
22298;SDS011;11317;51.072;17.036;2023-12-20T11:21:40;4.07;;;0.93;;
22298;SDS011;11317;51.072;17.036;2023-12-20T11:24:06;1.55;;;0.88;;
22298;SDS011;11317;51.072;17.036;2023-12-20T11:26:33;1.88;;;1.27;;
22298;SDS011;11317;51.072;17.036;2023-12-20T11:34:59;2.67;;;1.13;;
22298;SDS011;11317;51.072;17.036;2023-12-20T11:37:45;1.20;;;0.90;;
22298;SDS011;11317;51.072;17.036;2023-12-20T11:40:14;1.48;;;0.88;;
22298;SDS011;11317;51.072;17.036;2023-12-20T11:42:42;0.85;;;0.85;;
22298;SDS011;11317;51.072;17.036;2023-12-20T11:45:15;1.00;;;0.60;;
22298;SDS011;11317;51.072;17.036;2023-12-20T11:47:47;1.95;;;0.82;;
22298;SDS011;11317;51.072;17.036;2023-12-20T11:50:18;2.35;;;0.93;;
22298;SDS011;11317;51.072;17.036;2023-12-20T11:52:45;1.02;;;0.60;;
22298;SDS011;11317;51.072;17.036;2023-12-20T11:55:11;1.65;;;0.88;;
22298;SDS011;11317;51.072;17.036;2023-12-20T11:57:37;0.75;;;0.63;;
22298;SDS011;11317;51.072;17.036;2023-12-20T12:00:04;1.63;;;0.57;;
22298;SDS011;11317;51.072;17.036;2023-12-20T12:02:31;8.18;;;0.82;;
22298;SDS011;11317;51.072;17.036;2023-12-20T12:04:57;0.93;;;0.68;;
22298;SDS011;11317;51.072;17.036;2023-12-20T12:07:24;1.00;;;0.70;;
22298;SDS011;11317;51.072;17.036;2023-12-20T12:09:50;1.15;;;0.80;;
22298;SDS011;11317;51.072;17.036;2023-12-20T12:12:17;1.48;;;0.77;;
22298;SDS011;11317;51.072;17.036;2023-12-20T12:14:49;2.53;;;0.70;;
22298;SDS011;11317;51.072;17.036;2023-12-20T12:17:15;0.80;;;0.65;;
22298;SDS011;11317;51.072;17.036;2023-12-20T12:19:41;1.40;;;0.80;;
22298;SDS011;11317;51.072;17.036;2023-12-20T12:22:09;1.48;;;0.80;;
22298;SDS011;11317;51.072;17.036;2023-12-20T12:24:39;2.33;;;0.90;;
22298;SDS011;11317;51.072;17.036;2023-12-20T12:27:06;2.22;;;0.60;;
22298;SDS011;11317;51.072;17.036;2023-12-20T12:29:32;1.08;;;0.93;;
22298;SDS011;11317;51.072;17.036;2023-12-20T12:31:59;0.82;;;0.60;;
22298;SDS011;11317;51.072;17.036;2023-12-20T12:34:27;1.60;;;0.90;;
22298;SDS011;11317;51.072;17.036;2023-12-20T12:36:53;3.03;;;1.00;;
22298;SDS011;11317;51.072;17.036;2023-12-20T12:39:19;1.33;;;0.80;;
22298;SDS011;11317;51.072;17.036;2023-12-20T12:41:45;1.63;;;0.95;;
22298;SDS011;11317;51.072;17.036;2023-12-20T12:44:11;2.35;;;0.95;;
22298;SDS011;11317;51.072;17.036;2023-12-20T12:46:38;3.78;;;1.27;;
22298;SDS011;11317;51.072;17.036;2023-12-20T12:49:04;1.08;;;0.93;;
22298;SDS011;11317;51.072;17.036;2023-12-20T12:51:30;4.15;;;0.90;;
22298;SDS011;11317;51.072;17.036;2023-12-20T12:53:57;0.88;;;0.73;;
22298;SDS011;11317;51.072;17.036;2023-12-20T12:56:22;0.73;;;0.68;;
22298;SDS011;11317;51.072;17.036;2023-12-20T12:58:48;1.63;;;1.00;;
22298;SDS011;11317;51.072;17.036;2023-12-20T13:01:14;0.85;;;0.80;;
22298;SDS011;11317;51.072;17.036;2023-12-20T13:03:40;1.02;;;0.88;;
22298;SDS011;11317;51.072;17.036;2023-12-20T13:06:07;1.92;;;0.93;;
22298;SDS011;11317;51.072;17.036;2023-12-20T13:08:34;2.20;;;0.73;;
22298;SDS011;11317;51.072;17.036;2023-12-20T13:11:00;1.55;;;0.77;;
22298;SDS011;11317;51.072;17.036;2023-12-20T13:13:29;0.45;;;0.45;;
22298;SDS011;11317;51.072;17.036;2023-12-20T13:15:56;0.80;;;0.63;;
22298;SDS011;11317;51.072;17.036;2023-12-20T13:18:22;0.80;;;0.80;;
22298;SDS011;11317;51.072;17.036;2023-12-20T13:20:48;7.45;;;1.00;;
22298;SDS011;11317;51.072;17.036;2023-12-20T13:23:14;2.65;;;0.57;;
22298;SDS011;11317;51.072;17.036;2023-12-20T13:25:43;0.88;;;0.50;;
22298;SDS011;11317;51.072;17.036;2023-12-20T13:28:12;2.45;;;1.15;;
22298;SDS011;11317;51.072;17.036;2023-12-20T13:30:39;2.88;;;0.70;;
22298;SDS011;11317;51.072;17.036;2023-12-20T13:33:05;2.05;;;0.93;;
22298;SDS011;11317;51.072;17.036;2023-12-20T13:35:31;1.73;;;1.00;;
22298;SDS011;11317;51.072;17.036;2023-12-20T13:37:58;3.10;;;0.60;;
22298;SDS011;11317;51.072;17.036;2023-12-20T13:40:24;0.90;;;0.68;;
22298;SDS011;11317;51.072;17.036;2023-12-20T13:42:50;3.25;;;0.98;;
22298;SDS011;11317;51.072;17.036;2023-12-20T13:45:17;3.15;;;0.63;;
22298;SDS011;11317;51.072;17.036;2023-12-20T13:47:43;1.27;;;0.73;;
22298;SDS011;11317;51.072;17.036;2023-12-20T13:50:09;2.90;;;1.05;;
22298;SDS011;11317;51.072;17.036;2023-12-20T13:52:35;2.67;;;1.20;;
22298;SDS011;11317;51.072;17.036;2023-12-20T13:55:01;2.35;;;0.93;;
22298;SDS011;11317;51.072;17.036;2023-12-20T13:57:27;2.08;;;1.15;;
22298;SDS011;11317;51.072;17.036;2023-12-20T13:59:56;2.00;;;0.85;;
22298;SDS011;11317;51.072;17.036;2023-12-20T14:02:23;6.63;;;0.65;;
22298;SDS011;11317;51.072;17.036;2023-12-20T14:04:49;5.35;;;1.33;;
22298;SDS011;11317;51.072;17.036;2023-12-20T14:07:15;1.45;;;0.88;;
22298;SDS011;11317;51.072;17.036;2023-12-20T14:09:41;1.92;;;0.90;;
22298;SDS011;11317;51.072;17.036;2023-12-20T14:12:11;0.90;;;0.65;;
22298;SDS011;11317;51.072;17.036;2023-12-20T14:14:37;3.38;;;0.80;;
22298;SDS011;11317;51.072;17.036;2023-12-20T14:17:03;2.30;;;0.90;;
22298;SDS011;11317;51.072;17.036;2023-12-20T14:19:31;3.28;;;0.75;;
22298;SDS011;11317;51.072;17.036;2023-12-20T14:21:57;1.02;;;0.70;;
22298;SDS011;11317;51.072;17.036;2023-12-20T14:24:26;1.52;;;0.98;;
22298;SDS011;11317;51.072;17.036;2023-12-20T14:26:53;2.13;;;1.17;;
22298;SDS011;11317;51.072;17.036;2023-12-20T14:29:19;2.60;;;0.80;;
22298;SDS011;11317;51.072;17.036;2023-12-20T14:31:45;2.05;;;0.80;;
22298;SDS011;11317;51.072;17.036;2023-12-20T14:34:11;2.40;;;1.05;;
22298;SDS011;11317;51.072;17.036;2023-12-20T14:36:37;2.75;;;1.58;;
22298;SDS011;11317;51.072;17.036;2023-12-20T14:39:04;1.77;;;0.85;;
22298;SDS011;11317;51.072;17.036;2023-12-20T14:41:30;2.10;;;1.08;;